Punta Gorda Airport

Date: 2024-06-11 05:45:00Z

Type: SPECI

Weather: Heavy Rain

Winds: 140° at 6 kts

Visibility: 2.5

Ceiling (AGL FT): Clouds SCATTERED at 2800, BROKEN at 7000, OVERCAST at 8500, BROKEN at 4000

RAW METAR: KPGD 110545Z AUTO 14006KT 2 1/2SM +RA SCT028 BKN070 OVC085 26/23 A2988 RMK AO2 RAB25 P0028 T02610233

project-image